Time;durP1;ratioP1;P1;durP2;ratioP2;P2;SDS_P1;SDS_P2;PMS_P1;PMS_P2;Temp;Humidity;BMP_temperature;BMP_pressure;BME280_temperature;BME280_humidity;BME280_pressure;Samples;Min_cycle;Max_cycle;Signal;HPM_P1;HPM_P2
2022/09/05 00:00:57;;;;;;;3.97;1.85;;;;;;;16.96;60.20;101510.13;6043246;28;20030;-65
2022/09/05 00:04:16;;;;;;;3.63;1.88;;;;;;;16.95;60.05;101508.47;6039606;28;20034;-65
2022/09/05 00:07:30;;;;;;;;;;;;;;;16.93;60.30;101512.34;6043544;28;20030;-64
2022/09/05 00:10:37;;;;;;;5.05;1.80;;;;;;;16.86;60.61;101514.00;6048527;28;19909;-65
2022/09/05 00:13:39;;;;;;;4.15;1.90;;;;;;;16.72;60.79;101504.78;6064546;28;20116;-65
2022/09/05 00:16:46;;;;;;;3.90;2.13;;;;;;;16.85;60.84;101517.69;6043991;28;20677;-67
2022/09/05 00:20:04;;;;;;;3.33;1.63;;;;;;;16.81;60.79;101513.66;6031540;28;20046;-65
2022/09/05 00:23:30;;;;;;;3.35;1.70;;;;;;;16.63;61.32;101503.94;6044371;28;20038;-64
2022/09/05 00:27:01;;;;;;;3.08;1.95;;;;;;;16.56;61.40;101502.94;6049053;28;20061;-64
2022/09/05 00:30:15;;;;;;;3.05;1.83;;;;;;;16.61;61.36;101508.63;6046020;28;20169;-63
2022/09/05 00:33:30;;;;;;;2.70;1.80;;;;;;;16.58;61.65;101511.63;6063871;28;20038;-66
2022/09/05 00:36:45;;;;;;;4.40;2.10;;;;;;;16.49;62.15;101517.13;6039630;28;20049;-65
2022/09/05 00:39:41;;;;;;;3.10;1.75;;;;;;;16.45;62.07;101513.91;6032240;28;20065;-63
2022/09/05 00:42:36;;;;;;;4.32;2.28;;;;;;;16.36;62.46;101504.19;6046813;28;20093;-66
2022/09/05 00:45:46;;;;;;;4.50;2.00;;;;;;;16.37;62.17;101503.19;6048855;28;20026;-66
2022/09/05 00:49:21;;;;;;;4.47;1.85;;;;;;;16.42;62.32;101516.91;6047113;28;20265;-66
2022/09/05 00:52:28;;;;;;;3.33;1.90;;;;;;;16.35;62.40;101517.75;6060672;28;20091;-64
2022/09/05 00:55:40;;;;;;;4.07;2.22;;;;;;;16.32;62.93;101518.91;6041905;28;20385;-64
2022/09/05 00:58:49;;;;;;;2.95;1.75;;;;;;;16.24;62.74;101516.22;6046704;28;20066;-64
2022/09/05 01:02:03;;;;;;;3.35;2.10;;;;;;;16.17;63.01;101501.78;6055759;28;20109;-64
2022/09/05 01:05:03;;;;;;;3.47;2.00;;;;;;;16.24;62.99;101521.56;6046696;28;20033;-64
2022/09/05 01:08:22;;;;;;;3.40;1.83;;;;;;;16.30;62.75;101520.94;6046972;28;20041;-65
2022/09/05 01:11:56;;;;;;;3.90;1.85;;;;;;;16.32;62.89;101526.94;6039069;28;20049;-63
2022/09/05 01:15:00;;;;;;;4.00;1.90;;;;;;;16.12;63.50;101517.50;6038497;28;20453;-63
2022/09/05 01:17:55;;;;;;;4.50;1.90;;;;;;;16.30;63.46;101526.28;6059161;28;20479;-65
2022/09/05 01:20:53;;;;;;;3.07;1.70;;;;;;;16.25;63.32;101520.53;6025306;28;20061;-64
2022/09/05 01:23:59;;;;;;;4.65;2.20;;;;;;;16.18;63.80;101516.00;6027430;28;20336;-63
2022/09/05 01:27:30;;;;;;;3.55;1.80;;;;;;;16.26;63.80;101530.25;6035990;28;20057;-64
2022/09/05 01:30:28;;;;;;;4.50;1.77;;;;;;;16.20;63.82;101535.44;6062123;28;20086;-63
2022/09/05 01:33:45;;;;;;;3.13;1.83;;;;;;;16.23;63.69;101535.94;6047523;28;20026;-64
2022/09/05 01:36:53;;;;;;;3.03;1.70;;;;;;;16.27;63.55;101531.94;6043106;28;20034;-65
2022/09/05 01:40:27;;;;;;;2.72;1.67;;;;;;;16.22;63.48;101526.25;6043939;28;20038;-64
2022/09/05 01:44:00;;;;;;;3.15;1.83;;;;;;;16.25;63.71;101519.75;6046766;28;20084;-64
2022/09/05 01:47:26;;;;;;;3.80;1.95;;;;;;;16.30;64.06;101523.59;6062096;28;20100;-65
2022/09/05 01:50:46;;;;;;;3.33;1.80;;;;;;;16.25;63.76;101517.88;6045657;28;20595;-64
2022/09/05 01:53:50;;;;;;;4.07;1.83;;;;;;;16.25;63.80;101515.19;6043057;28;20477;-64
2022/09/05 01:57:02;;;;;;;8.35;2.30;;;;;;;16.24;63.88;101524.25;6061540;28;20033;-63
2022/09/05 02:00:11;;;;;;;3.10;1.85;;;;;;;16.20;64.36;101516.72;6062356;28;20712;-63
2022/09/05 02:03:12;;;;;;;3.58;2.13;;;;;;;16.17;64.18;101514.34;6032892;28;20031;-65
2022/09/05 02:06:14;;;;;;;3.05;1.98;;;;;;;16.08;64.74;101517.00;6046447;28;20068;-64
2022/09/05 02:09:18;;;;;;;4.05;2.10;;;;;;;16.04;64.86;101504.09;6045699;28;20033;-64
2022/09/05 02:12:13;;;;;;;4.38;2.20;;;;;;;16.04;64.82;101517.47;6045948;28;20041;-63
2022/09/05 02:15:15;;;;;;;3.30;1.80;;;;;;;15.99;64.94;101506.41;6045782;28;20038;-66
2022/09/05 02:18:19;;;;;;;3.67;1.92;;;;;;;15.94;65.09;101503.41;6061480;28;20385;-65
2022/09/05 02:21:22;;;;;;;4.22;2.25;;;;;;;16.01;64.96;101507.94;6061145;28;20061;-64
2022/09/05 02:24:48;;;;;;;4.25;2.03;;;;;;;15.99;65.54;101511.78;6043459;28;20128;-65
2022/09/05 02:27:50;;;;;;;3.60;2.00;;;;;;;15.94;65.57;101514.09;6039466;28;20141;-65
2022/09/05 02:30:48;;;;;;;4.05;2.03;;;;;;;15.91;65.32;101517.09;6044006;28;20521;-66
2022/09/05 02:33:59;;;;;;;3.70;2.17;;;;;;;15.84;65.22;101505.38;6044766;28;20072;-63
2022/09/05 02:37:19;;;;;;;3.90;2.28;;;;;;;15.87;66.16;101513.06;6029083;28;20030;-63
2022/09/05 02:40:35;;;;;;;3.95;2.00;;;;;;;15.86;66.04;101506.03;6048308;28;20034;-64
2022/09/05 02:43:41;;;;;;;3.63;2.10;;;;;;;15.75;65.77;101492.94;6023641;28;20073;-63
2022/09/05 02:47:07;;;;;;;6.30;2.08;;;;;;;15.74;66.59;101496.59;6042266;28;20504;-63
2022/09/05 02:50:40;;;;;;;4.60;2.33;;;;;;;15.81;66.60;101506.53;6033342;28;20374;-64
2022/09/05 02:53:39;;;;;;;4.45;2.03;;;;;;;15.70;66.76;101495.28;6035633;28;20116;-63
2022/09/05 02:56:50;;;;;;;4.88;2.30;;;;;;;15.68;66.90;101486.56;6045694;28;20430;-64
2022/09/05 03:00:10;;;;;;;3.17;1.85;;;;;;;15.76;66.95;101499.97;6043895;28;20319;-64
2022/09/05 03:03:27;;;;;;;3.50;2.00;;;;;;;15.78;67.30;101503.31;6041694;28;20034;-66
2022/09/05 03:07:01;;;;;;;5.32;2.08;;;;;;;15.76;67.46;101494.63;6041989;28;20069;-64
2022/09/05 03:10:11;;;;;;;4.38;2.30;;;;;;;15.74;67.26;101485.91;6036803;28;20041;-63
2022/09/05 03:13:28;;;;;;;3.60;2.30;;;;;;;15.71;67.44;101489.75;6039315;28;20141;-65
2022/09/05 03:16:51;;;;;;;4.32;2.60;;;;;;;15.71;67.98;101483.59;6045375;28;20048;-63
2022/09/05 03:19:53;;;;;;;4.55;2.10;;;;;;;15.71;67.76;101491.59;6059803;28;20112;-64
2022/09/05 03:23:00;;;;;;;4.82;2.78;;;;;;;15.76;67.54;101481.25;6044530;28;20145;-65
2022/09/05 03:26:44;;;;;;;4.60;2.40;;;;;;;15.78;67.87;101484.59;6044671;28;20034;-65
2022/09/05 03:29:51;;;;;;;3.95;2.47;;;;;;;15.75;68.08;101490.28;6031904;28;20048;-65
2022/09/05 03:33:02;;;;;;;4.57;2.30;;;;;;;15.78;68.35;101489.97;6044858;28;20088;-64
2022/09/05 03:36:22;;;;;;;4.55;2.53;;;;;;;15.73;68.04;101489.59;6033520;28;20038;-64
2022/09/05 03:39:41;;;;;;;4.88;2.40;;;;;;;15.71;68.74;101496.97;6047247;28;20037;-64
2022/09/05 03:43:04;;;;;;;4.63;2.40;;;;;;;15.69;68.36;101496.25;6064363;28;20030;-65
2022/09/05 03:46:25;;;;;;;4.35;2.70;;;;;;;15.61;69.08;101504.25;6061742;28;20365;-66
2022/09/05 03:49:36;;;;;;;4.57;2.47;;;;;;;15.45;69.52;101491.59;6029028;28;20080;-65
2022/09/05 03:52:45;;;;;;;3.47;2.17;;;;;;;15.47;69.67;101506.50;6064345;28;20425;-64
2022/09/05 03:56:08;;;;;;;5.75;2.60;;;;;;;15.41;69.70;101504.44;6064898;28;20064;-63
2022/09/05 03:59:24;;;;;;;4.13;2.75;;;;;;;15.29;70.47;101511.03;6044447;28;20389;-64
2022/09/05 04:02:28;;;;;;;4.88;2.47;;;;;;;15.23;71.11;101500.97;6045381;28;20034;-65
2022/09/05 04:05:28;;;;;;;4.65;2.53;;;;;;;15.38;70.95;101496.72;6049311;28;20551;-63
2022/09/05 04:08:50;;;;;;;4.80;2.55;;;;;;;15.35;71.14;101513.09;6047785;28;20489;-65
2022/09/05 04:11:51;;;;;;;4.47;2.60;;;;;;;15.23;70.89;101509.00;6043746;28;20034;-65
2022/09/05 04:14:51;;;;;;;7.43;2.95;;;;;;;15.20;71.81;101520.00;6047399;28;20042;-64
2022/09/05 04:17:51;;;;;;;6.93;2.92;;;;;;;15.16;72.06;101518.66;6064625;28;20124;-64
2022/09/05 04:20:57;;;;;;;4.88;2.95;;;;;;;15.17;71.87;101522.13;6048416;28;20082;-64
2022/09/05 04:24:04;;;;;;;4.70;2.92;;;;;;;15.25;72.05;101535.53;6063928;28;20034;-65
2022/09/05 04:27:18;;;;;;;5.55;2.58;;;;;;;15.24;72.14;101537.41;6063269;28;20049;-62
2022/09/05 04:30:25;;;;;;;5.70;3.05;;;;;;;15.14;72.15;101515.25;6048482;28;20040;-64
2022/09/05 04:33:28;;;;;;;5.65;2.80;;;;;;;15.22;72.19;101535.88;6059107;28;20447;-64
2022/09/05 04:36:27;;;;;;;4.80;2.85;;;;;;;15.15;72.28;101526.81;6048938;28;20034;-64
2022/09/05 04:39:24;;;;;;;5.55;2.90;;;;;;;15.23;71.98;101530.38;6045638;28;20066;-63
2022/09/05 04:42:23;;;;;;;4.45;2.80;;;;;;;15.26;72.16;101545.25;6046675;28;20389;-63
2022/09/05 04:45:18;;;;;;;5.25;3.10;;;;;;;15.24;72.18;101537.41;6047595;28;20768;-64
2022/09/05 04:48:20;;;;;;;4.45;2.80;;;;;;;15.25;72.29;101541.75;6047137;28;20121;-65
2022/09/05 04:51:45;;;;;;;5.40;3.28;;;;;;;15.28;72.73;101548.59;6045093;28;20037;-63
2022/09/05 04:55:00;;;;;;;5.78;3.10;;;;;;;15.31;72.70;101556.31;6031550;28;20062;-64
2022/09/05 04:57:58;;;;;;;6.32;2.83;;;;;;;15.19;73.25;101538.88;6040958;28;20034;-64
2022/09/05 05:01:00;;;;;;;4.55;2.85;;;;;;;15.28;72.74;101557.47;6044769;28;20073;-63
2022/09/05 05:04:04;;;;;;;5.35;3.05;;;;;;;15.33;72.90;101555.16;6046831;28;20110;-64
2022/09/05 05:07:11;;;;;;;5.80;3.38;;;;;;;15.25;72.83;101533.72;6043440;28;20033;-62
2022/09/05 05:10:10;;;;;;;10.07;3.08;;;;;;;15.41;72.60;101554.38;6046305;28;20404;-64
2022/09/05 05:13:25;;;;;;;5.28;3.28;;;;;;;15.48;72.53;101564.34;6034902;28;20040;-65
2022/09/05 05:16:25;;;;;;;5.13;2.60;;;;;;;15.49;72.27;101552.63;6035048;28;20559;-65
2022/09/05 05:19:23;;;;;;;;;;;;;;;15.59;72.29;101567.72;6046706;28;20485;-65
2022/09/05 05:22:19;;;;;;;7.07;3.08;;;;;;;15.67;72.15;101582.00;6042824;28;19917;-62
2022/09/05 05:25:14;;;;;;;6.40;3.00;;;;;;;15.76;71.17;101574.88;6039685;28;20118;-64
2022/09/05 05:28:17;;;;;;;4.55;2.72;;;;;;;15.87;71.37;101585.31;6024123;28;20038;-62
2022/09/05 05:31:16;;;;;;;4.97;3.10;;;;;;;16.02;70.72;101575.66;6025844;28;20041;-62
2022/09/05 05:34:18;;;;;;;6.80;2.60;;;;;;;16.06;70.50;101577.03;6026714;28;20113;-63
2022/09/05 05:37:22;;;;;;;5.03;2.80;;;;;;;16.14;70.20;101579.75;6047154;28;20119;-64
2022/09/05 05:40:25;;;;;;;5.20;2.78;;;;;;;16.21;69.13;101553.16;6061596;28;21095;-62
2022/09/05 05:43:26;;;;;;;6.90;3.00;;;;;;;16.29;69.29;101571.94;6047116;28;20033;-63
2022/09/05 05:46:29;;;;;;;5.53;3.42;;;;;;;16.48;68.52;101572.50;6045463;28;20038;-64
2022/09/05 05:49:27;;;;;;;5.32;2.90;;;;;;;16.74;67.74;101579.63;6046029;28;20034;-64
2022/09/05 05:52:47;;;;;;;7.38;3.17;;;;;;;16.86;67.44;101586.34;6046315;28;20038;-63
2022/09/05 05:56:09;;;;;;;6.25;2.92;;;;;;;17.00;66.90;101588.38;6045386;28;20038;-64
2022/09/05 05:59:37;;;;;;;5.43;2.78;;;;;;;17.10;66.63;101583.66;6057092;28;20033;-63
2022/09/05 06:03:02;;;;;;;4.75;2.70;;;;;;;17.10;66.29;101583.66;6046226;28;20474;-62
2022/09/05 06:06:06;;;;;;;5.35;2.63;;;;;;;17.51;64.75;101582.66;6050421;28;20068;-63
2022/09/05 06:09:24;;;;;;;4.57;2.85;;;;;;;17.43;64.88;101579.97;6044147;28;20057;-64
2022/09/05 06:12:46;;;;;;;5.07;2.63;;;;;;;17.44;64.84;101589.72;6053598;28;20040;-62
2022/09/05 06:16:21;;;;;;;5.05;2.83;;;;;;;17.48;64.34;101580.31;6052046;28;20050;-63
2022/09/05 06:19:48;;;;;;;5.90;2.90;;;;;;;17.71;64.17;101592.06;6033323;28;20038;-64
2022/09/05 06:23:12;;;;;;;4.78;2.97;;;;;;;18.34;61.70;101591.19;6035746;28;20040;-63
2022/09/05 06:26:27;;;;;;;5.28;2.72;;;;;;;18.25;61.96;101579.63;6017570;28;20057;-63
2022/09/05 06:29:30;;;;;;;5.78;2.83;;;;;;;18.46;61.03;101595.13;6045853;28;20048;-64
2022/09/05 06:32:50;;;;;;;8.10;3.00;;;;;;;18.43;61.33;101595.47;6045093;28;20072;-63
2022/09/05 06:36:00;;;;;;;5.35;3.05;;;;;;;18.36;61.76;101592.69;6040222;28;20030;-63
2022/09/05 06:39:17;;;;;;;5.80;3.17;;;;;;;18.19;62.07;101582.16;6029647;28;20046;-64
2022/09/05 06:42:20;;;;;;;5.53;3.40;;;;;;;17.77;63.20;101572.56;6060388;28;20034;-62
2022/09/05 06:45:42;;;;;;;6.68;2.85;;;;;;;17.94;63.77;101591.34;6055343;28;20029;-65
2022/09/05 06:48:45;;;;;;;6.50;3.50;;;;;;;18.19;63.45;101600.97;6040424;28;20388;-65
2022/09/05 06:52:12;;;;;;;4.65;2.53;;;;;;;18.66;61.58;101593.72;6044005;28;20103;-64
2022/09/05 06:55:22;;;;;;;6.63;3.17;;;;;;;18.55;61.73;101606.72;6045257;28;20374;-65
2022/09/05 06:58:26;;;;;;;6.55;3.33;;;;;;;18.72;61.50;101598.41;6053600;28;20130;-64
2022/09/05 07:01:42;;;;;;;6.45;3.28;;;;;;;18.74;61.20;101595.53;6039697;28;20034;-63
2022/09/05 07:05:02;;;;;;;4.20;2.90;;;;;;;18.82;60.99;101590.09;6037240;28;20461;-64
2022/09/05 07:08:20;;;;;;;8.65;3.13;;;;;;;18.91;61.41;101595.25;6033800;28;20066;-63
2022/09/05 07:11:20;;;;;;;5.38;2.97;;;;;;;19.01;60.52;101592.31;6043551;28;20033;-63
2022/09/05 07:14:22;;;;;;;7.07;2.70;;;;;;;19.34;60.53;101590.19;6037178;28;20042;-65
2022/09/05 07:17:43;;;;;;;6.65;3.00;;;;;;;19.70;58.86;101596.63;6026788;28;20470;-63
2022/09/05 07:20:49;;;;;;;5.35;3.25;;;;;;;19.80;58.87;101596.34;6048387;28;20046;-65
2022/09/05 07:24:00;;;;;;;10.13;3.60;;;;;;;19.64;58.97;101613.50;6040488;28;20029;-64
2022/09/05 07:26:57;;;;;;;6.22;3.65;;;;;;;19.96;58.03;101613.16;6065598;28;20045;-65
2022/09/05 07:29:55;;;;;;;5.53;2.88;;;;;;;20.15;57.56;101607.22;6042493;28;20030;-65
2022/09/05 07:32:54;;;;;;;5.60;2.90;;;;;;;20.49;57.03;101613.91;6040452;28;20033;-64
2022/09/05 07:35:50;;;;;;;7.65;4.00;;;;;;;20.56;56.13;101604.03;6048099;28;20038;-63
2022/09/05 07:38:49;;;;;;;6.28;2.92;;;;;;;20.70;56.40;101600.47;6064054;28;20453;-64
2022/09/05 07:41:51;;;;;;;4.38;3.10;;;;;;;20.93;55.69;101601.13;6048950;28;20026;-63
2022/09/05 07:44:55;;;;;;;6.45;3.25;;;;;;;21.12;55.44;101599.69;6049201;28;20158;-62
2022/09/05 07:48:02;;;;;;;5.18;3.33;;;;;;;21.46;54.12;101602.50;6057093;28;20026;-63
2022/09/05 07:51:01;;;;;;;8.07;3.53;;;;;;;21.40;54.79;101591.63;6034205;28;20026;-63
2022/09/05 07:54:01;;;;;;;6.40;3.70;;;;;;;21.98;53.16;101602.06;6047956;28;20698;-63
2022/09/05 07:56:58;;;;;;;;;;;;;;;22.15;52.38;101608.78;6048450;28;20072;-62
2022/09/05 07:59:55;;;;;;;6.90;3.35;;;;;;;22.10;52.29;101594.22;6045796;28;20389;-62
2022/09/05 08:02:51;;;;;;;6.05;3.17;;;;;;;21.86;53.01;101593.69;6047427;28;20533;-63
2022/09/05 08:05:49;;;;;;;7.75;3.60;;;;;;;22.01;53.35;101607.06;6048795;28;20136;-64
2022/09/05 08:09:02;;;;;;;8.38;3.78;;;;;;;22.20;52.59;101587.44;6044383;28;20034;-63
2022/09/05 08:12:01;;;;;;;7.22;3.78;;;;;;;22.03;52.69;101605.00;6045155;28;20508;-65
2022/09/05 08:15:07;;;;;;;7.03;3.80;;;;;;;22.07;52.28;101611.66;6047852;28;20029;-63
2022/09/05 08:18:23;;;;;;;6.22;3.80;;;;;;;22.36;51.96;101600.63;6048760;28;20041;-65
2022/09/05 08:21:22;;;;;;;6.20;3.33;;;;;;;22.62;50.94;101604.44;6047178;28;20029;-65
2022/09/05 08:24:27;;;;;;;7.15;4.10;;;;;;;22.55;51.43;101596.31;6046815;28;20049;-65
2022/09/05 08:27:28;;;;;;;5.82;3.63;;;;;;;22.61;51.17;101592.81;6035490;28;20108;-66
2022/09/05 08:30:23;;;;;;;6.40;4.07;;;;;;;22.95;50.09;101599.97;6026240;28;20532;-65
2022/09/05 08:33:33;;;;;;;8.30;3.63;;;;;;;22.96;50.28;101596.25;6059773;28;20061;-63
2022/09/05 08:36:45;;;;;;;8.73;3.70;;;;;;;22.96;50.11;101590.84;6063928;28;20058;-65
2022/09/05 08:39:41;;;;;;;8.45;3.78;;;;;;;22.53;51.44;101599.19;6034721;28;20029;-65
2022/09/05 08:42:55;;;;;;;6.32;3.80;;;;;;;22.69;51.17;101594.53;6044100;28;20121;-63
2022/09/05 08:45:57;;;;;;;7.72;3.55;;;;;;;22.52;51.63;101581.34;6034020;28;20034;-63
2022/09/05 08:49:30;;;;;;;8.13;3.92;;;;;;;22.73;51.57;101595.75;6040060;28;20037;-64
2022/09/05 08:52:52;;;;;;;6.50;3.60;;;;;;;22.75;50.86;101589.09;6030327;28;20032;-64
2022/09/05 08:56:09;;;;;;;6.03;3.58;;;;;;;23.16;50.44;101593.53;6030620;28;20556;-62
2022/09/05 08:59:25;;;;;;;5.47;3.30;;;;;;;23.96;48.76;101577.91;6045458;28;20769;-63
2022/09/05 09:02:44;;;;;;;6.90;3.83;;;;;;;24.04;47.51;101576.84;6041644;28;20458;-64
2022/09/05 09:06:03;;;;;;;6.35;3.33;;;;;;;23.93;48.05;101577.50;6041710;28;20030;-65
2022/09/05 09:09:09;;;;;;;6.45;3.25;;;;;;;24.27;47.34;101574.47;6033162;28;20034;-65
2022/09/05 09:12:11;;;;;;;;;;;;;;;24.32;47.08;101571.16;6062688;28;20072;-65
2022/09/05 09:15:23;;;;;;;6.25;3.47;;;;;;;24.42;46.66;101556.06;6031684;28;19917;-62
2022/09/05 09:18:20;;;;;;;7.05;3.35;;;;;;;24.79;45.48;101557.97;6028948;28;20173;-63
2022/09/05 09:21:44;;;;;;;7.53;3.80;;;;;;;24.35;46.11;101566.09;6029783;28;20022;-63
2022/09/05 09:24:56;;;;;;;6.55;3.17;;;;;;;24.81;44.96;101555.88;6046694;28;20100;-65
2022/09/05 09:28:14;;;;;;;7.85;3.80;;;;;;;25.07;45.43;101559.44;6045481;28;20169;-64
2022/09/05 09:31:11;;;;;;;6.05;3.50;;;;;;;24.82;44.93;101546.69;6026630;28;20077;-65
2022/09/05 09:34:19;;;;;;;6.75;3.47;;;;;;;24.84;45.09;101555.44;6044108;28;20041;-64
2022/09/05 09:37:33;;;;;;;5.82;3.22;;;;;;;24.46;45.22;101551.88;6044108;28;20563;-65
2022/09/05 09:40:41;;;;;;;8.50;3.80;;;;;;;23.90;46.31;101556.22;6046754;28;20049;-66
2022/09/05 09:44:04;;;;;;;5.40;3.42;;;;;;;24.03;46.13;101550.75;6045458;28;20064;-64
2022/09/05 09:47:02;;;;;;;4.80;3.67;;;;;;;23.79;46.47;101555.00;6033048;28;20474;-63
2022/09/05 09:50:09;;;;;;;7.85;3.85;;;;;;;24.25;46.14;101549.47;6038386;28;20038;-63
2022/09/05 09:53:18;;;;;;;9.70;3.60;;;;;;;24.82;44.68;101545.84;6045463;28;20033;-65
2022/09/05 09:56:35;;;;;;;7.13;3.90;;;;;;;24.99;44.49;101546.16;6035902;28;20030;-65
2022/09/05 09:59:52;;;;;;;4.93;3.58;;;;;;;25.00;43.97;101534.25;6035652;28;20045;-65
2022/09/05 10:03:01;;;;;;;8.68;3.58;;;;;;;25.02;43.50;101540.28;6033286;28;20396;-65
2022/09/05 10:05:56;;;;;;;7.07;3.40;;;;;;;25.30;43.37;101537.97;6056334;28;20401;-64
2022/09/05 10:09:11;;;;;;;5.53;3.67;;;;;;;24.76;44.46;101514.97;6046291;28;20037;-65
2022/09/05 10:12:25;;;;;;;4.72;3.35;;;;;;;24.88;44.35;101542.25;6045323;28;20112;-65
2022/09/05 10:15:26;;;;;;;9.88;3.58;;;;;;;25.21;43.14;101526.56;6039853;28;20030;-63
2022/09/05 10:18:44;;;;;;;6.40;3.33;;;;;;;25.48;43.45;101524.44;6043565;28;20034;-64
2022/09/05 10:21:49;;;;;;;;;;;;;;;25.76;42.88;101522.06;6027383;28;20405;-66
2022/09/05 10:25:06;;;;;;;6.47;3.80;;;;;;;25.57;43.13;101523.13;6045469;28;20428;-66
2022/09/05 10:28:17;;;;;;;5.45;3.15;;;;;;;25.69;42.90;101505.00;6038404;28;20379;-66
2022/09/05 10:31:17;;;;;;;7.85;4.10;;;;;;;25.12;43.82;101513.47;6038883;28;20042;-64
2022/09/05 10:34:19;;;;;;;6.28;3.75;;;;;;;25.23;43.86;101500.00;6037815;28;20870;-64
2022/09/05 10:37:17;;;;;;;8.00;3.75;;;;;;;25.41;43.59;101501.94;6037926;28;20080;-64
2022/09/05 10:40:16;;;;;;;6.63;3.75;;;;;;;25.35;43.55;101505.53;6037924;28;20049;-65
2022/09/05 10:43:22;;;;;;;13.07;4.40;;;;;;;25.21;43.74;101504.81;6040108;28;20054;-66
2022/09/05 10:46:45;;;;;;;8.15;3.95;;;;;;;25.49;43.08;101504.38;6037433;28;20152;-65
2022/09/05 10:49:43;;;;;;;6.70;3.45;;;;;;;25.86;42.98;101510.66;6034070;28;20049;-65
2022/09/05 10:52:58;;;;;;;6.82;3.75;;;;;;;25.90;42.45;101496.38;6039908;28;20037;-64
2022/09/05 10:55:59;;;;;;;6.68;4.10;;;;;;;25.63;42.88;101492.28;6045405;28;20025;-64
2022/09/05 10:59:02;;;;;;;6.55;3.50;;;;;;;26.37;41.62;101499.34;6042763;28;20049;-64
2022/09/05 11:02:05;;;;;;;8.13;4.18;;;;;;;26.29;41.93;101484.19;6037829;28;20089;-64
2022/09/05 11:05:07;;;;;;;6.28;3.95;;;;;;;26.30;41.85;101490.47;6038856;28;20038;-65
2022/09/05 11:08:25;;;;;;;6.88;3.97;;;;;;;26.72;41.37;101496.75;6044204;28;20081;-63
2022/09/05 11:11:25;;;;;;;7.47;3.97;;;;;;;26.42;41.03;101477.72;6024837;28;20116;-64
2022/09/05 11:14:36;;;;;;;8.52;3.40;;;;;;;26.49;41.50;101473.03;6039906;28;20653;-65
2022/09/05 11:17:52;;;;;;;6.38;3.78;;;;;;;26.77;40.88;101459.59;6037884;28;20046;-66
2022/09/05 11:20:57;;;;;;;9.38;4.07;;;;;;;27.06;41.01;101463.34;6044090;28;20034;-64
2022/09/05 11:23:55;;;;;;;5.30;3.95;;;;;;;27.14;40.59;101454.81;6044089;28;20087;-65
2022/09/05 11:27:01;;;;;;;6.22;3.83;;;;;;;27.36;40.15;101463.22;6044005;28;20045;-66
2022/09/05 11:30:03;;;;;;;7.47;4.13;;;;;;;27.05;40.89;101454.34;6045130;28;20060;-64
2022/09/05 11:33:17;;;;;;;8.18;4.20;;;;;;;27.35;40.20;101467.84;6045135;28;20128;-64
2022/09/05 11:36:25;;;;;;;6.35;3.92;;;;;;;27.46;39.92;101460.75;6043107;28;20045;-64
2022/09/05 11:39:52;;;;;;;7.28;4.07;;;;;;;27.59;39.48;101455.88;6041684;28;20484;-64
2022/09/05 11:43:05;;;;;;;9.43;3.88;;;;;;;27.54;39.72;101469.38;6037891;28;20481;-66
2022/09/05 11:46:29;;;;;;;8.13;4.05;;;;;;;27.49;39.98;101468.44;6036742;28;20048;-65
2022/09/05 11:50:09;;;;;;;6.20;4.07;;;;;;;27.54;39.17;101452.19;6060550;28;20034;-65
2022/09/05 11:53:41;;;;;;;10.45;3.97;;;;;;;27.47;39.90;101465.97;6028673;28;20041;-65
2022/09/05 11:56:45;;;;;;;7.45;3.75;;;;;;;27.47;39.24;101443.34;6032997;28;20367;-65
2022/09/05 11:59:46;;;;;;;6.20;3.75;;;;;;;27.97;38.64;101451.72;6039739;28;20092;-64
2022/09/05 12:02:56;;;;;;;8.15;3.90;;;;;;;27.87;38.69;101449.63;6048819;28;20033;-65
2022/09/05 12:06:03;;;;;;;7.47;3.97;;;;;;;27.83;38.59;101437.53;6064713;28;20026;-65
2022/09/05 12:09:22;;;;;;;10.75;3.85;;;;;;;27.81;37.87;101439.69;6051587;28;20049;-65
2022/09/05 12:12:29;;;;;;;8.25;3.83;;;;;;;28.18;37.65;101443.72;6047373;28;20800;-65
2022/09/05 12:15:32;;;;;;;7.07;3.78;;;;;;;27.95;37.98;101430.16;6041086;28;20030;-65
2022/09/05 12:18:43;;;;;;;6.85;3.60;;;;;;;28.10;37.96;101433.19;6025509;28;20034;-64
2022/09/05 12:22:07;;;;;;;7.03;3.30;;;;;;;27.59;38.62;101427.78;6030545;28;20032;-66
2022/09/05 12:25:12;;;;;;;8.27;3.90;;;;;;;27.90;37.72;101421.88;6039096;28;20088;-65
2022/09/05 12:28:12;;;;;;;8.55;3.53;;;;;;;27.93;37.23;101426.84;6059085;28;20057;-64
2022/09/05 12:31:19;;;;;;;5.38;3.50;;;;;;;27.87;37.44;101416.91;6047305;28;20544;-64
2022/09/05 12:34:51;;;;;;;7.70;3.92;;;;;;;28.41;36.67;101422.84;6038974;28;20034;-65
2022/09/05 12:37:51;;;;;;;7.50;3.78;;;;;;;28.61;36.65;101404.09;6033843;28;20816;-66
2022/09/05 12:40:59;;;;;;;7.28;3.50;;;;;;;28.41;37.10;101411.94;6045895;28;20034;-64
2022/09/05 12:44:00;;;;;;;6.03;3.40;;;;;;;28.76;36.23;101401.63;6048063;28;20038;-66
2022/09/05 12:47:00;;;;;;;5.82;3.42;;;;;;;28.28;36.75;101393.97;6037120;28;20038;-65
2022/09/05 12:50:04;;;;;;;6.63;3.40;;;;;;;28.41;36.60;101396.38;6045789;28;20042;-65
2022/09/05 12:53:06;;;;;;;9.15;3.40;;;;;;;28.27;36.97;101401.34;6038624;28;20030;-65
2022/09/05 12:56:06;;;;;;;6.35;3.40;;;;;;;28.32;36.55;101403.31;6032477;28;20084;-64
2022/09/05 12:59:03;;;;;;;6.85;3.65;;;;;;;28.13;36.91;101399.97;6044828;28;20560;-65
2022/09/05 13:02:06;;;;;;;5.93;3.17;;;;;;;27.49;37.76;101403.03;6046833;28;20034;-65
2022/09/05 13:05:11;;;;;;;5.15;3.20;;;;;;;27.16;38.94;101404.47;6037415;28;20132;-65
2022/09/05 13:08:09;;;;;;;7.85;3.45;;;;;;;27.26;38.71;101403.06;6041092;28;20030;-66
2022/09/05 13:11:07;;;;;;;5.85;3.22;;;;;;;27.36;38.77;101395.94;6045587;28;20112;-64
2022/09/05 13:14:15;;;;;;;8.65;3.22;;;;;;;27.83;37.77;101399.38;6041798;28;20145;-65
2022/09/05 13:17:12;;;;;;;5.53;3.33;;;;;;;28.18;36.48;101377.44;6033713;28;20485;-66
2022/09/05 13:20:20;;;;;;;6.85;3.55;;;;;;;28.49;36.55;101385.06;6041185;28;20037;-66
2022/09/05 13:23:21;;;;;;;7.45;3.33;;;;;;;28.21;36.81;101385.94;6047938;28;20113;-65
2022/09/05 13:26:22;;;;;;;8.90;3.78;;;;;;;27.54;37.86;101381.34;6047890;28;20034;-65
2022/09/05 13:29:20;;;;;;;5.32;3.50;;;;;;;27.26;38.58;101381.25;6046634;28;20053;-65
2022/09/05 13:32:20;;;;;;;8.35;3.28;;;;;;;27.23;38.69;101371.69;6038162;28;20044;-64
2022/09/05 13:35:18;;;;;;;;;;;;;;;27.60;37.94;101375.75;6045624;28;20026;-67
2022/09/05 13:38:23;;;;;;;7.32;3.42;;;;;;;27.89;36.97;101359.38;6044248;28;20234;-66
2022/09/05 13:41:33;;;;;;;5.15;2.92;;;;;;;27.82;37.15;101348.66;6037279;28;20026;-64
2022/09/05 13:44:32;;;;;;;5.35;3.08;;;;;;;27.91;37.17;101358.06;6045900;28;20843;-65
2022/09/05 13:47:55;;;;;;;6.57;3.33;;;;;;;27.85;37.18;101367.25;6034123;28;20037;-66
2022/09/05 13:50:53;;;;;;;4.00;2.78;;;;;;;27.88;37.40;101364.03;6046531;28;20037;-65
2022/09/05 13:54:02;;;;;;;4.85;3.00;;;;;;;27.90;36.99;101361.88;6045479;28;20070;-65
2022/09/05 13:57:18;;;;;;;7.57;3.10;;;;;;;27.53;37.90;101347.78;6045090;28;20041;-65
2022/09/05 14:00:37;;;;;;;6.55;2.95;;;;;;;27.90;37.37;101342.78;6037838;28;20084;-65
2022/09/05 14:03:42;;;;;;;;;;;;;;;28.20;36.99;101340.66;6032101;28;20615;-65
2022/09/05 14:07:00;;;;;;;6.00;3.55;;;;;;;28.34;36.23;101341.97;6057631;28;19940;-64
2022/09/05 14:10:06;;;;;;;4.72;3.03;;;;;;;28.36;36.22;101325.34;6023808;28;20030;-65
2022/09/05 14:13:31;;;;;;;8.07;3.55;;;;;;;27.79;37.08;101332.78;6043646;28;20037;-65
2022/09/05 14:16:31;;;;;;;7.03;3.58;;;;;;;27.84;37.28;101338.31;6031727;28;20120;-65
2022/09/05 14:22:46;;;;;;;6.50;3.10;;;;;;;28.17;36.53;101332.94;6034209;28;20038;-64
2022/09/05 14:25:46;;;;;;;6.65;3.00;;;;;;;27.91;36.62;101314.44;6038048;28;20033;-63
2022/09/05 14:28:57;;;;;;;8.20;3.20;;;;;;;28.12;36.39;101329.31;6050416;28;20113;-65
2022/09/05 14:32:04;;;;;;;5.35;3.38;;;;;;;28.44;36.11;101329.56;6044210;28;20140;-65
2022/09/05 14:35:25;;;;;;;7.13;3.20;;;;;;;28.70;35.54;101312.53;6044673;28;20472;-67
2022/09/05 14:38:26;;;;;;;6.03;3.20;;;;;;;28.83;35.20;101312.19;6044037;28;20041;-65
2022/09/05 14:41:43;;;;;;;4.82;3.22;;;;;;;28.39;36.12;101315.84;6028954;28;20038;-65
2022/09/05 14:45:12;;;;;;;11.60;3.50;;;;;;;28.53;35.48;101320.72;6034254;28;20038;-64